Johnny James — WYT8450 — position and weather

sailwx.info

Track history (hours):
 
Tides and Currents Weather Stations Pressure Air Temp Water Temp Dewpoint Dewpoint Depression Visibility Wind Speed Wind Dir Waves Ship Positions

Johnny James

Owner: CALLAIS & SONS INC, CUT OFF, LA. More information available from US FCC via Universal Licensing System and Coast Guard Vessel Documentation Center.

Last reported at 2015-Jun-29 13:28 UTC. Time now 2015-Jul-03 22:01 UTC.
Position N 29°31' W 094°53'.

Length 20 m.

Type: Towing. MMSI: 367005220.

Date/timePositionNaut miles runAvg speedWind from/ knotsBaromVisibWave heightAir tempDewpointWater temp
2015-Jun-29 13:28N 29°31' W 094°53'4 4.7
2015-Jun-29 12:34N 29°35' W 094°56'5 5.1
2015-Jun-29 11:33N 29°39' W 094°58'5 4.7
2015-Jun-29 10:34N 29°43' W 095°01'4 0.2
2015-Jun-28 08:13N 29°45' W 095°06'0 0.4
2015-Jun-28 07:32N 29°46' W 095°06'0 0.1
2015-Jun-28 03:30N 29°46' W 095°06'0 0.0
2015-Jun-28 01:33N 29°46' W 095°06'0 0.0
2015-Jun-28 00:30N 29°46' W 095°06'0 0.0
2015-Jun-27 23:33N 29°46' W 095°06'0 0.0
2015-Jun-27 22:33N 29°46' W 095°06'0 0.0
2015-Jun-27 21:33N 29°46' W 095°06'0 0.0
2015-Jun-27 20:15N 29°46' W 095°06'0 0.0
2015-Jun-27 19:33N 29°46' W 095°06'0 0.2
2015-Jun-27 18:27N 29°46' W 095°05'0 0.4
2015-Jun-27 17:14N 29°45' W 095°06'0 0.0
2015-Jun-27 16:26N 29°45' W 095°06'0 0.0
2015-Jun-27 06:32N 29°46' W 095°06'2 1.6
2015-Jun-27 05:33N 29°45' W 095°04'5 4.7
2015-Jun-27 04:33N 29°42' W 094°60'5 5.0
2015-Jun-27 03:33N 29°37' W 094°58'6 5.5
2015-Jun-27 02:33N 29°33' W 094°54'5 4.7
2015-Jun-27 01:33N 29°29' W 094°51'5 4.6
2015-Jun-27 00:33N 29°24' W 094°49'  
2015-Jun-20 22:30N 29°32' W 094°54'5 5.6
2015-Jun-20 21:33N 29°37' W 094°57'5 5.5
2015-Jun-20 20:33N 29°42' W 094°60'5 4.7
2015-Jun-20 19:33N 29°45' W 095°04'2 2.3
2015-Jun-20 18:33N 29°45' W 095°06'0 0.2
2015-Jun-20 17:33N 29°45' W 095°06'0 0.0
2015-Jun-20 16:31N 29°45' W 095°06'0 0.0
2015-Jun-20 15:33N 29°45' W 095°06'0 0.0
2015-Jun-20 14:32N 29°45' W 095°06'0 0.0
2015-Jun-20 13:33N 29°45' W 095°06'0 0.0
2015-Jun-20 12:12N 29°45' W 095°06'0 0.0
2015-Jun-20 09:31N 29°45' W 095°06'0 0.0
2015-Jun-20 08:33N 29°45' W 095°06'0 0.0
2015-Jun-20 05:25N 29°45' W 095°06'0 0.0
2015-Jun-20 04:33N 29°45' W 095°06'0 0.0
2015-Jun-20 03:33N 29°45' W 095°06'1 0.5
2015-Jun-20 02:29N 29°45' W 095°06'1 1.1
2015-Jun-20 01:33N 29°46' W 095°05'1 1.1
2015-Jun-20 00:20N 29°47' W 095°06'0 0.0
2015-Jun-19 22:18N 29°47' W 095°06'1 1.2
2015-Jun-19 21:26N 29°47' W 095°05'2 1.5
2015-Jun-19 20:21N 29°46' W 095°05'1 1.3
2015-Jun-19 19:31N 29°45' W 095°06'0 0.1
2015-Jun-19 18:03N 29°45' W 095°06'1 3.0
2015-Jun-19 17:33N 29°46' W 095°04'6 5.6
2015-Jun-19 16:33N 29°42' W 094°60'6 6.5
2015-Jun-19 15:33N 29°36' W 094°57'7 6.8
2015-Jun-19 14:33N 29°30' W 094°52'  
Track history (hours):
 
Tides and Currents Weather Stations Pressure Air Temp Water Temp Dewpoint Dewpoint Depression Visibility Wind Speed Wind Dir Waves Ship Positions

Johnny James

Owner: CALLAIS & SONS INC, CUT OFF, LA. More information available from US FCC via Universal Licensing System and Coast Guard Vessel Documentation Center.

Last reported at 2015-Jun-29 13:28 UTC. Time now 2015-Jul-03 22:01 UTC.
Position N 29°31' W 094°53'.

Length 20 m.

Type: Towing. MMSI: 367005220.

Date/timePositionNaut miles runAvg speedWind from/ knotsBaromVisibWave heightAir tempDewpointWater temp
2015-Jun-29 13:28N 29°31' W 094°53'4 4.7
2015-Jun-29 12:34N 29°35' W 094°56'5 5.1
2015-Jun-29 11:33N 29°39' W 094°58'5 4.7
2015-Jun-29 10:34N 29°43' W 095°01'4 0.2
2015-Jun-28 08:13N 29°45' W 095°06'0 0.4
2015-Jun-28 07:32N 29°46' W 095°06'0 0.1
2015-Jun-28 03:30N 29°46' W 095°06'0 0.0
2015-Jun-28 01:33N 29°46' W 095°06'0 0.0
2015-Jun-28 00:30N 29°46' W 095°06'0 0.0
2015-Jun-27 23:33N 29°46' W 095°06'0 0.0
2015-Jun-27 22:33N 29°46' W 095°06'0 0.0
2015-Jun-27 21:33N 29°46' W 095°06'0 0.0
2015-Jun-27 20:15N 29°46' W 095°06'0 0.0
2015-Jun-27 19:33N 29°46' W 095°06'0 0.2
2015-Jun-27 18:27N 29°46' W 095°05'0 0.4
2015-Jun-27 17:14N 29°45' W 095°06'0 0.0
2015-Jun-27 16:26N 29°45' W 095°06'0 0.0
2015-Jun-27 06:32N 29°46' W 095°06'2 1.6
2015-Jun-27 05:33N 29°45' W 095°04'5 4.7
2015-Jun-27 04:33N 29°42' W 094°60'5 5.0
2015-Jun-27 03:33N 29°37' W 094°58'6 5.5
2015-Jun-27 02:33N 29°33' W 094°54'5 4.7
2015-Jun-27 01:33N 29°29' W 094°51'5 4.6
2015-Jun-27 00:33N 29°24' W 094°49'  
2015-Jun-20 22:30N 29°32' W 094°54'5 5.6
2015-Jun-20 21:33N 29°37' W 094°57'5 5.5
2015-Jun-20 20:33N 29°42' W 094°60'5 4.7
2015-Jun-20 19:33N 29°45' W 095°04'2 2.3
2015-Jun-20 18:33N 29°45' W 095°06'0 0.2
2015-Jun-20 17:33N 29°45' W 095°06'0 0.0
2015-Jun-20 16:31N 29°45' W 095°06'0 0.0
2015-Jun-20 15:33N 29°45' W 095°06'0 0.0
2015-Jun-20 14:32N 29°45' W 095°06'0 0.0
2015-Jun-20 13:33N 29°45' W 095°06'0 0.0
2015-Jun-20 12:12N 29°45' W 095°06'0 0.0
2015-Jun-20 09:31N 29°45' W 095°06'0 0.0
2015-Jun-20 08:33N 29°45' W 095°06'0 0.0
2015-Jun-20 05:25N 29°45' W 095°06'0 0.0
2015-Jun-20 04:33N 29°45' W 095°06'0 0.0
2015-Jun-20 03:33N 29°45' W 095°06'1 0.5
2015-Jun-20 02:29N 29°45' W 095°06'1 1.1
2015-Jun-20 01:33N 29°46' W 095°05'1 1.1
2015-Jun-20 00:20N 29°47' W 095°06'0 0.0
2015-Jun-19 22:18N 29°47' W 095°06'1 1.2
2015-Jun-19 21:26N 29°47' W 095°05'2 1.5
2015-Jun-19 20:21N 29°46' W 095°05'1 1.3
2015-Jun-19 19:31N 29°45' W 095°06'0 0.1
2015-Jun-19 18:03N 29°45' W 095°06'1 3.0
2015-Jun-19 17:33N 29°46' W 095°04'6 5.6
2015-Jun-19 16:33N 29°42' W 094°60'6 6.5
2015-Jun-19 15:33N 29°36' W 094°57'7 6.8
2015-Jun-19 14:33N 29°30' W 094°52'  

Dump ship's entire track history